Monroe, Maine
Current Conditions -  °F | °C
As of 12:53 AM on Monday 20 Oct 2014 (Local Time) from KBGR Reporting Station
Overcast Overcast  
Wind Chill: 35°   Ceiling: 6500
Heat Index: 41°   Visibility: 10mi
Dew Point: 30°   Wind: 9mph
Humidity: 65%   Direction: 290°WNW
Pressure: 29.81"   Gusts: NA
Location:  44.61°N, 69.02°W
Report Text: KBGR 200453Z 29008KT 10SM OVC065 05/M01 A2981 RMK AO2 SLP096 T00501011 401110050
Loading
Personal Weather Stations






























Interactive Weather Map
Tropical Storm Tracking
New forecast layout! Learn more

10-Day Weather Forecast

Advertisements
Track Severe Weather on mobile